sensor_id;sensor_type;location;lat;lon;timestamp;P1;durP1;ratioP1;P2;durP2;ratioP2
36593;SDS011;22603;47.900;8.146;2022-08-01T00:02:09;5.03;;;1.90;;
36593;SDS011;22603;47.900;8.146;2022-08-01T00:04:59;4.63;;;1.97;;
36593;SDS011;22603;47.900;8.146;2022-08-01T00:07:46;4.33;;;1.90;;
36593;SDS011;22603;47.900;8.146;2022-08-01T00:10:33;3.33;;;1.60;;
36593;SDS011;22603;47.900;8.146;2022-08-01T00:13:21;4.07;;;1.83;;
36593;SDS011;22603;47.900;8.146;2022-08-01T00:16:08;4.63;;;1.90;;
36593;SDS011;22603;47.900;8.146;2022-08-01T00:18:55;3.00;;;1.53;;
36593;SDS011;22603;47.900;8.146;2022-08-01T00:21:44;8.13;;;1.90;;
36593;SDS011;22603;47.900;8.146;2022-08-01T00:24:36;4.33;;;1.70;;
36593;SDS011;22603;47.900;8.146;2022-08-01T00:27:23;5.63;;;1.87;;
36593;SDS011;22603;47.900;8.146;2022-08-01T00:30:11;5.43;;;1.80;;
36593;SDS011;22603;47.900;8.146;2022-08-01T00:32:59;3.60;;;1.77;;
36593;SDS011;22603;47.900;8.146;2022-08-01T00:35:46;6.13;;;1.73;;
36593;SDS011;22603;47.900;8.146;2022-08-01T00:38:35;3.53;;;1.57;;
36593;SDS011;22603;47.900;8.146;2022-08-01T00:41:23;5.30;;;1.93;;
36593;SDS011;22603;47.900;8.146;2022-08-01T00:44:10;3.43;;;1.63;;
36593;SDS011;22603;47.900;8.146;2022-08-01T00:46:57;6.67;;;1.90;;
36593;SDS011;22603;47.900;8.146;2022-08-01T00:49:44;4.30;;;1.80;;
36593;SDS011;22603;47.900;8.146;2022-08-01T00:52:31;4.63;;;1.80;;
36593;SDS011;22603;47.900;8.146;2022-08-01T00:55:21;5.17;;;1.97;;
36593;SDS011;22603;47.900;8.146;2022-08-01T00:58:08;5.20;;;1.80;;
36593;SDS011;22603;47.900;8.146;2022-08-01T01:00:56;4.90;;;2.10;;
36593;SDS011;22603;47.900;8.146;2022-08-01T01:03:47;4.77;;;1.80;;
36593;SDS011;22603;47.900;8.146;2022-08-01T01:06:44;4.33;;;1.80;;
36593;SDS011;22603;47.900;8.146;2022-08-01T01:09:50;6.17;;;2.27;;
36593;SDS011;22603;47.900;8.146;2022-08-01T01:12:47;5.27;;;1.80;;
36593;SDS011;22603;47.900;8.146;2022-08-01T01:15:41;4.00;;;1.50;;
36593;SDS011;22603;47.900;8.146;2022-08-01T01:18:33;4.13;;;1.70;;
36593;SDS011;22603;47.900;8.146;2022-08-01T01:21:32;5.33;;;1.90;;
36593;SDS011;22603;47.900;8.146;2022-08-01T01:24:40;3.63;;;1.73;;
36593;SDS011;22603;47.900;8.146;2022-08-01T01:27:42;3.57;;;1.70;;
36593;SDS011;22603;47.900;8.146;2022-08-01T01:30:37;4.80;;;1.70;;
36593;SDS011;22603;47.900;8.146;2022-08-01T01:33:27;4.97;;;1.97;;
36593;SDS011;22603;47.900;8.146;2022-08-01T01:36:16;5.30;;;1.90;;
36593;SDS011;22603;47.900;8.146;2022-08-01T01:39:07;7.63;;;2.03;;
36593;SDS011;22603;47.900;8.146;2022-08-01T01:41:54;6.47;;;2.20;;
36593;SDS011;22603;47.900;8.146;2022-08-01T01:44:43;3.87;;;1.60;;
36593;SDS011;22603;47.900;8.146;2022-08-01T01:47:32;4.83;;;1.97;;
36593;SDS011;22603;47.900;8.146;2022-08-01T01:50:20;8.20;;;2.00;;
36593;SDS011;22603;47.900;8.146;2022-08-01T01:53:09;4.77;;;2.07;;
36593;SDS011;22603;47.900;8.146;2022-08-01T01:55:59;7.10;;;2.07;;
36593;SDS011;22603;47.900;8.146;2022-08-01T01:58:48;3.70;;;1.60;;
36593;SDS011;22603;47.900;8.146;2022-08-01T02:01:38;5.40;;;1.80;;
36593;SDS011;22603;47.900;8.146;2022-08-01T02:04:47;4.80;;;1.77;;
36593;SDS011;22603;47.900;8.146;2022-08-01T02:07:35;4.33;;;1.97;;
36593;SDS011;22603;47.900;8.146;2022-08-01T02:10:24;4.30;;;1.83;;
36593;SDS011;22603;47.900;8.146;2022-08-01T02:13:13;5.17;;;1.47;;
36593;SDS011;22603;47.900;8.146;2022-08-01T02:16:05;2.80;;;1.53;;
36593;SDS011;22603;47.900;8.146;2022-08-01T02:18:53;3.57;;;1.80;;
36593;SDS011;22603;47.900;8.146;2022-08-01T02:21:44;4.03;;;1.60;;
36593;SDS011;22603;47.900;8.146;2022-08-01T02:24:36;5.67;;;1.97;;
36593;SDS011;22603;47.900;8.146;2022-08-01T02:27:28;5.67;;;1.93;;
36593;SDS011;22603;47.900;8.146;2022-08-01T02:30:20;4.43;;;1.60;;
36593;SDS011;22603;47.900;8.146;2022-08-01T02:33:12;4.60;;;1.90;;
36593;SDS011;22603;47.900;8.146;2022-08-01T02:36:03;5.17;;;2.00;;
36593;SDS011;22603;47.900;8.146;2022-08-01T02:39:15;3.53;;;1.70;;
36593;SDS011;22603;47.900;8.146;2022-08-01T02:42:06;6.50;;;2.20;;
36593;SDS011;22603;47.900;8.146;2022-08-01T02:44:54;4.57;;;1.90;;
36593;SDS011;22603;47.900;8.146;2022-08-01T02:47:42;4.53;;;1.80;;
36593;SDS011;22603;47.900;8.146;2022-08-01T02:50:30;7.33;;;2.37;;
36593;SDS011;22603;47.900;8.146;2022-08-01T02:53:20;3.67;;;1.70;;
36593;SDS011;22603;47.900;8.146;2022-08-01T02:56:29;4.60;;;1.97;;
36593;SDS011;22603;47.900;8.146;2022-08-01T02:59:21;5.13;;;1.67;;
36593;SDS011;22603;47.900;8.146;2022-08-01T03:02:11;5.87;;;2.37;;
36593;SDS011;22603;47.900;8.146;2022-08-01T03:04:59;8.50;;;1.87;;
36593;SDS011;22603;47.900;8.146;2022-08-01T03:07:47;5.13;;;2.00;;
36593;SDS011;22603;47.900;8.146;2022-08-01T03:10:37;4.60;;;2.10;;
36593;SDS011;22603;47.900;8.146;2022-08-01T03:13:27;6.23;;;2.40;;
36593;SDS011;22603;47.900;8.146;2022-08-01T03:16:15;4.50;;;1.90;;
36593;SDS011;22603;47.900;8.146;2022-08-01T03:19:04;5.17;;;1.93;;
36593;SDS011;22603;47.900;8.146;2022-08-01T03:21:53;6.90;;;2.60;;
36593;SDS011;22603;47.900;8.146;2022-08-01T03:24:44;4.53;;;1.93;;
36593;SDS011;22603;47.900;8.146;2022-08-01T03:27:35;5.83;;;2.10;;
36593;SDS011;22603;47.900;8.146;2022-08-01T03:30:25;4.60;;;1.83;;
36593;SDS011;22603;47.900;8.146;2022-08-01T03:33:13;4.07;;;1.90;;
36593;SDS011;22603;47.900;8.146;2022-08-01T03:36:00;5.40;;;2.20;;
36593;SDS011;22603;47.900;8.146;2022-08-01T03:38:50;4.87;;;2.10;;
36593;SDS011;22603;47.900;8.146;2022-08-01T03:41:43;7.13;;;2.60;;
36593;SDS011;22603;47.900;8.146;2022-08-01T03:44:40;8.27;;;2.50;;
36593;SDS011;22603;47.900;8.146;2022-08-01T03:47:34;4.57;;;2.00;;
36593;SDS011;22603;47.900;8.146;2022-08-01T03:50:29;5.30;;;2.30;;
36593;SDS011;22603;47.900;8.146;2022-08-01T03:53:20;6.10;;;2.07;;
36593;SDS011;22603;47.900;8.146;2022-08-01T03:56:09;5.93;;;2.40;;
36593;SDS011;22603;47.900;8.146;2022-08-01T03:58:58;7.03;;;2.40;;
36593;SDS011;22603;47.900;8.146;2022-08-01T04:01:45;6.30;;;2.40;;
36593;SDS011;22603;47.900;8.146;2022-08-01T04:04:35;4.67;;;1.80;;
36593;SDS011;22603;47.900;8.146;2022-08-01T04:07:22;5.93;;;2.00;;
36593;SDS011;22603;47.900;8.146;2022-08-01T04:10:11;6.20;;;2.53;;
36593;SDS011;22603;47.900;8.146;2022-08-01T04:12:59;6.17;;;2.33;;
36593;SDS011;22603;47.900;8.146;2022-08-01T04:15:46;6.60;;;2.20;;
36593;SDS011;22603;47.900;8.146;2022-08-01T04:18:33;8.73;;;2.33;;
36593;SDS011;22603;47.900;8.146;2022-08-01T04:21:22;5.23;;;2.20;;
36593;SDS011;22603;47.900;8.146;2022-08-01T04:24:13;8.20;;;2.77;;
36593;SDS011;22603;47.900;8.146;2022-08-01T04:27:05;6.13;;;2.23;;
36593;SDS011;22603;47.900;8.146;2022-08-01T04:29:56;6.23;;;2.43;;
36593;SDS011;22603;47.900;8.146;2022-08-01T04:32:45;6.37;;;2.33;;
36593;SDS011;22603;47.900;8.146;2022-08-01T04:35:35;6.63;;;2.50;;
36593;SDS011;22603;47.900;8.146;2022-08-01T04:38:49;7.40;;;2.67;;
36593;SDS011;22603;47.900;8.146;2022-08-01T04:41:40;6.13;;;2.30;;
36593;SDS011;22603;47.900;8.146;2022-08-01T04:44:28;7.23;;;2.70;;
36593;SDS011;22603;47.900;8.146;2022-08-01T04:47:17;6.70;;;2.70;;
36593;SDS011;22603;47.900;8.146;2022-08-01T04:50:05;6.83;;;3.37;;
36593;SDS011;22603;47.900;8.146;2022-08-01T04:52:53;6.27;;;2.80;;
36593;SDS011;22603;47.900;8.146;2022-08-01T04:55:42;5.53;;;2.20;;
36593;SDS011;22603;47.900;8.146;2022-08-01T04:58:31;6.53;;;2.33;;
36593;SDS011;22603;47.900;8.146;2022-08-01T05:01:18;6.17;;;2.40;;
36593;SDS011;22603;47.900;8.146;2022-08-01T05:04:06;6.77;;;2.40;;
36593;SDS011;22603;47.900;8.146;2022-08-01T05:06:53;5.30;;;2.40;;
36593;SDS011;22603;47.900;8.146;2022-08-01T05:09:40;7.17;;;2.37;;
36593;SDS011;22603;47.900;8.146;2022-08-01T05:12:32;6.90;;;2.63;;
36593;SDS011;22603;47.900;8.146;2022-08-01T05:15:20;7.20;;;2.80;;
36593;SDS011;22603;47.900;8.146;2022-08-01T05:18:08;6.63;;;2.80;;
36593;SDS011;22603;47.900;8.146;2022-08-01T05:20:55;5.20;;;2.17;;
36593;SDS011;22603;47.900;8.146;2022-08-01T05:23:42;6.27;;;2.47;;
36593;SDS011;22603;47.900;8.146;2022-08-01T05:26:29;7.00;;;2.97;;
36593;SDS011;22603;47.900;8.146;2022-08-01T05:29:18;7.33;;;2.87;;
36593;SDS011;22603;47.900;8.146;2022-08-01T05:32:06;7.20;;;2.90;;
36593;SDS011;22603;47.900;8.146;2022-08-01T05:34:53;6.50;;;2.83;;
36593;SDS011;22603;47.900;8.146;2022-08-01T05:37:40;7.67;;;3.10;;
36593;SDS011;22603;47.900;8.146;2022-08-01T05:40:27;6.83;;;2.63;;
36593;SDS011;22603;47.900;8.146;2022-08-01T05:43:15;6.70;;;3.07;;
36593;SDS011;22603;47.900;8.146;2022-08-01T05:46:03;7.73;;;3.03;;
36593;SDS011;22603;47.900;8.146;2022-08-01T05:48:51;7.17;;;2.90;;
36593;SDS011;22603;47.900;8.146;2022-08-01T05:51:38;10.67;;;2.97;;
36593;SDS011;22603;47.900;8.146;2022-08-01T05:54:25;7.40;;;2.93;;
36593;SDS011;22603;47.900;8.146;2022-08-01T05:57:12;9.23;;;3.20;;
36593;SDS011;22603;47.900;8.146;2022-08-01T05:59:59;8.10;;;2.80;;
36593;SDS011;22603;47.900;8.146;2022-08-01T06:02:48;8.87;;;3.00;;
36593;SDS011;22603;47.900;8.146;2022-08-01T06:05:36;7.27;;;2.90;;
36593;SDS011;22603;47.900;8.146;2022-08-01T06:08:23;7.67;;;3.20;;
36593;SDS011;22603;47.900;8.146;2022-08-01T06:11:10;8.07;;;3.10;;
36593;SDS011;22603;47.900;8.146;2022-08-01T06:13:57;8.87;;;3.30;;
36593;SDS011;22603;47.900;8.146;2022-08-01T06:16:45;8.30;;;3.27;;
36593;SDS011;22603;47.900;8.146;2022-08-01T06:19:33;6.63;;;2.90;;
36593;SDS011;22603;47.900;8.146;2022-08-01T06:22:20;8.57;;;3.07;;
36593;SDS011;22603;47.900;8.146;2022-08-01T06:25:08;7.73;;;3.13;;
36593;SDS011;22603;47.900;8.146;2022-08-01T06:27:55;11.00;;;3.00;;
36593;SDS011;22603;47.900;8.146;2022-08-01T06:30:42;8.03;;;3.23;;
36593;SDS011;22603;47.900;8.146;2022-08-01T06:33:29;8.88;;;3.00;;
36593;SDS011;22603;47.900;8.146;2022-08-01T06:36:18;7.25;;;2.65;;
36593;SDS011;22603;47.900;8.146;2022-08-01T06:39:05;9.57;;;3.20;;
36593;SDS011;22603;47.900;8.146;2022-08-01T06:41:52;8.52;;;3.00;;
36593;SDS011;22603;47.900;8.146;2022-08-01T06:44:39;7.13;;;2.80;;
36593;SDS011;22603;47.900;8.146;2022-08-01T06:47:26;6.10;;;2.47;;
36593;SDS011;22603;47.900;8.146;2022-08-01T06:50:14;6.70;;;2.70;;
36593;SDS011;22603;47.900;8.146;2022-08-01T06:53:03;6.45;;;2.90;;
36593;SDS011;22603;47.900;8.146;2022-08-01T06:55:50;7.00;;;2.90;;
36593;SDS011;22603;47.900;8.146;2022-08-01T06:58:37;6.32;;;2.88;;
36593;SDS011;22603;47.900;8.146;2022-08-01T07:01:24;7.20;;;2.95;;
36593;SDS011;22603;47.900;8.146;2022-08-01T07:04:11;8.80;;;2.65;;
36593;SDS011;22603;47.900;8.146;2022-08-01T07:06:58;7.25;;;3.10;;
36593;SDS011;22603;47.900;8.146;2022-08-01T07:09:47;6.53;;;2.90;;
36593;SDS011;22603;47.900;8.146;2022-08-01T07:12:36;6.20;;;2.95;;
36593;SDS011;22603;47.900;8.146;2022-08-01T07:15:26;5.03;;;2.40;;
36593;SDS011;22603;47.900;8.146;2022-08-01T07:18:13;7.38;;;2.80;;
36593;SDS011;22603;47.900;8.146;2022-08-01T07:21:03;6.30;;;2.65;;
36593;SDS011;22603;47.900;8.146;2022-08-01T07:24:00;6.57;;;2.30;;
36593;SDS011;22603;47.900;8.146;2022-08-01T07:26:59;7.20;;;2.10;;
36593;SDS011;22603;47.900;8.146;2022-08-01T07:30:07;3.90;;;1.67;;
36593;SDS011;22603;47.900;8.146;2022-08-01T07:32:54;4.13;;;1.88;;
36593;SDS011;22603;47.900;8.146;2022-08-01T07:35:41;4.60;;;1.83;;
36593;SDS011;22603;47.900;8.146;2022-08-01T07:38:28;3.30;;;1.33;;
36593;SDS011;22603;47.900;8.146;2022-08-01T07:41:15;3.22;;;1.50;;
36593;SDS011;22603;47.900;8.146;2022-08-01T07:44:04;3.67;;;1.65;;
36593;SDS011;22603;47.900;8.146;2022-08-01T07:46:51;5.03;;;1.55;;
36593;SDS011;22603;47.900;8.146;2022-08-01T07:49:38;4.55;;;1.70;;
36593;SDS011;22603;47.900;8.146;2022-08-01T07:52:26;3.45;;;1.77;;
36593;SDS011;22603;47.900;8.146;2022-08-01T07:55:13;4.88;;;1.80;;
36593;SDS011;22603;47.900;8.146;2022-08-01T07:58:00;3.03;;;1.48;;
36593;SDS011;22603;47.900;8.146;2022-08-01T08:00:49;2.10;;;1.25;;
36593;SDS011;22603;47.900;8.146;2022-08-01T08:03:36;3.05;;;1.80;;
36593;SDS011;22603;47.900;8.146;2022-08-01T08:06:23;7.22;;;2.00;;
36593;SDS011;22603;47.900;8.146;2022-08-01T08:09:10;3.28;;;1.80;;
36593;SDS011;22603;47.900;8.146;2022-08-01T08:11:57;4.60;;;1.73;;
36593;SDS011;22603;47.900;8.146;2022-08-01T08:14:45;3.50;;;1.80;;
36593;SDS011;22603;47.900;8.146;2022-08-01T08:17:34;5.57;;;1.92;;
36593;SDS011;22603;47.900;8.146;2022-08-01T08:20:21;4.28;;;1.65;;
36593;SDS011;22603;47.900;8.146;2022-08-01T08:23:09;3.90;;;1.52;;
36593;SDS011;22603;47.900;8.146;2022-08-01T08:26:28;3.88;;;1.80;;
36593;SDS011;22603;47.900;8.146;2022-08-01T08:29:17;3.50;;;1.60;;
36593;SDS011;22603;47.900;8.146;2022-08-01T08:32:04;4.15;;;1.80;;
36593;SDS011;22603;47.900;8.146;2022-08-01T08:34:54;5.40;;;1.98;;
36593;SDS011;22603;47.900;8.146;2022-08-01T08:37:41;6.32;;;1.73;;
36593;SDS011;22603;47.900;8.146;2022-08-01T08:40:34;3.10;;;1.70;;
36593;SDS011;22603;47.900;8.146;2022-08-01T08:43:23;3.33;;;1.60;;
36593;SDS011;22603;47.900;8.146;2022-08-01T08:46:11;4.00;;;1.63;;
36593;SDS011;22603;47.900;8.146;2022-08-01T08:49:00;2.63;;;1.48;;
36593;SDS011;22603;47.900;8.146;2022-08-01T08:51:52;3.20;;;1.50;;
36593;SDS011;22603;47.900;8.146;2022-08-01T08:54:43;2.97;;;1.65;;
36593;SDS011;22603;47.900;8.146;2022-08-01T08:57:32;6.32;;;2.28;;
36593;SDS011;22603;47.900;8.146;2022-08-01T09:00:19;5.78;;;1.95;;
36593;SDS011;22603;47.900;8.146;2022-08-01T09:03:07;4.10;;;1.98;;
36593;SDS011;22603;47.900;8.146;2022-08-01T09:05:55;3.80;;;1.92;;
36593;SDS011;22603;47.900;8.146;2022-08-01T09:08:43;3.83;;;1.65;;
36593;SDS011;22603;47.900;8.146;2022-08-01T09:11:31;3.88;;;1.80;;
36593;SDS011;22603;47.900;8.146;2022-08-01T09:14:18;3.55;;;1.60;;
36593;SDS011;22603;47.900;8.146;2022-08-01T09:17:09;3.97;;;1.77;;
36593;SDS011;22603;47.900;8.146;2022-08-01T09:19:57;2.97;;;1.55;;
36593;SDS011;22603;47.900;8.146;2022-08-01T09:22:44;3.22;;;1.58;;
36593;SDS011;22603;47.900;8.146;2022-08-01T09:25:35;2.33;;;1.42;;
36593;SDS011;22603;47.900;8.146;2022-08-01T09:28:43;4.03;;;1.55;;
36593;SDS011;22603;47.900;8.146;2022-08-01T09:31:39;4.35;;;1.98;;
36593;SDS011;22603;47.900;8.146;2022-08-01T09:34:31;5.72;;;1.80;;
36593;SDS011;22603;47.900;8.146;2022-08-01T09:37:19;5.07;;;1.70;;
36593;SDS011;22603;47.900;8.146;2022-08-01T09:40:21;4.35;;;2.00;;
36593;SDS011;22603;47.900;8.146;2022-08-01T09:43:12;4.28;;;1.92;;
36593;SDS011;22603;47.900;8.146;2022-08-01T09:46:00;3.72;;;1.90;;
36593;SDS011;22603;47.900;8.146;2022-08-01T09:48:57;7.50;;;2.22;;
36593;SDS011;22603;47.900;8.146;2022-08-01T09:51:51;4.07;;;1.85;;
36593;SDS011;22603;47.900;8.146;2022-08-01T09:54:51;4.72;;;1.95;;
36593;SDS011;22603;47.900;8.146;2022-08-01T09:57:40;3.80;;;1.83;;
36593;SDS011;22603;47.900;8.146;2022-08-01T10:00:45;5.53;;;2.05;;
36593;SDS011;22603;47.900;8.146;2022-08-01T10:03:45;3.38;;;1.80;;
36593;SDS011;22603;47.900;8.146;2022-08-01T10:06:32;3.60;;;1.85;;
36593;SDS011;22603;47.900;8.146;2022-08-01T10:09:26;4.88;;;2.13;;
36593;SDS011;22603;47.900;8.146;2022-08-01T10:12:24;3.88;;;1.90;;
36593;SDS011;22603;47.900;8.146;2022-08-01T10:15:13;3.10;;;1.70;;
36593;SDS011;22603;47.900;8.146;2022-08-01T10:18:04;7.38;;;2.40;;
36593;SDS011;22603;47.900;8.146;2022-08-01T10:21:09;4.03;;;1.80;;
36593;SDS011;22603;47.900;8.146;2022-08-01T10:23:56;5.80;;;2.47;;
36593;SDS011;22603;47.900;8.146;2022-08-01T10:26:47;4.95;;;2.10;;
36593;SDS011;22603;47.900;8.146;2022-08-01T10:29:37;4.28;;;1.90;;
36593;SDS011;22603;47.900;8.146;2022-08-01T10:32:32;8.68;;;2.00;;
36593;SDS011;22603;47.900;8.146;2022-08-01T10:35:21;6.68;;;2.30;;
36593;SDS011;22603;47.900;8.146;2022-08-01T10:38:28;5.18;;;2.20;;
36593;SDS011;22603;47.900;8.146;2022-08-01T10:41:17;3.72;;;1.75;;
36593;SDS011;22603;47.900;8.146;2022-08-01T10:44:06;4.57;;;1.95;;
36593;SDS011;22603;47.900;8.146;2022-08-01T10:47:06;4.13;;;1.80;;
36593;SDS011;22603;47.900;8.146;2022-08-01T10:49:56;6.50;;;2.05;;
36593;SDS011;22603;47.900;8.146;2022-08-01T10:56:01;4.95;;;2.03;;
36593;SDS011;22603;47.900;8.146;2022-08-01T10:58:55;7.05;;;2.03;;
36593;SDS011;22603;47.900;8.146;2022-08-01T11:01:57;4.85;;;1.95;;
36593;SDS011;22603;47.900;8.146;2022-08-01T11:04:47;6.00;;;1.88;;
36593;SDS011;22603;47.900;8.146;2022-08-01T11:07:45;4.28;;;1.80;;
36593;SDS011;22603;47.900;8.146;2022-08-01T11:10:36;5.45;;;1.90;;
36593;SDS011;22603;47.900;8.146;2022-08-01T11:16:54;3.95;;;1.80;;
36593;SDS011;22603;47.900;8.146;2022-08-01T11:26:07;4.80;;;2.00;;
36593;SDS011;22603;47.900;8.146;2022-08-01T11:29:13;4.82;;;2.47;;
36593;SDS011;22603;47.900;8.146;2022-08-01T11:35:11;1.65;;;1.20;;
36593;SDS011;22603;47.900;8.146;2022-08-01T11:41:13;5.00;;;1.52;;
36593;SDS011;22603;47.900;8.146;2022-08-01T11:44:02;4.10;;;1.70;;
36593;SDS011;22603;47.900;8.146;2022-08-01T11:47:01;3.83;;;1.70;;
36593;SDS011;22603;47.900;8.146;2022-08-01T11:49:54;2.13;;;1.15;;
36593;SDS011;22603;47.900;8.146;2022-08-01T11:52:42;5.18;;;1.77;;
36593;SDS011;22603;47.900;8.146;2022-08-01T11:55:32;2.92;;;1.48;;
36593;SDS011;22603;47.900;8.146;2022-08-01T11:58:22;4.43;;;1.60;;
36593;SDS011;22603;47.900;8.146;2022-08-01T12:01:14;4.65;;;1.48;;
36593;SDS011;22603;47.900;8.146;2022-08-01T12:04:03;3.60;;;1.30;;
36593;SDS011;22603;47.900;8.146;2022-08-01T12:06:51;2.90;;;1.40;;
36593;SDS011;22603;47.900;8.146;2022-08-01T12:09:38;2.55;;;1.50;;
36593;SDS011;22603;47.900;8.146;2022-08-01T12:12:25;3.50;;;1.58;;
36593;SDS011;22603;47.900;8.146;2022-08-01T12:15:16;5.50;;;1.60;;
36593;SDS011;22603;47.900;8.146;2022-08-01T12:18:04;3.70;;;1.73;;
36593;SDS011;22603;47.900;8.146;2022-08-01T12:21:00;3.35;;;1.42;;
36593;SDS011;22603;47.900;8.146;2022-08-01T12:23:59;3.03;;;1.55;;
36593;SDS011;22603;47.900;8.146;2022-08-01T12:26:47;4.47;;;1.50;;
36593;SDS011;22603;47.900;8.146;2022-08-01T12:29:34;3.88;;;1.40;;
36593;SDS011;22603;47.900;8.146;2022-08-01T12:32:25;2.88;;;1.35;;
36593;SDS011;22603;47.900;8.146;2022-08-01T12:35:20;3.17;;;1.33;;
36593;SDS011;22603;47.900;8.146;2022-08-01T12:38:13;3.63;;;1.58;;
36593;SDS011;22603;47.900;8.146;2022-08-01T12:41:02;4.68;;;1.55;;
36593;SDS011;22603;47.900;8.146;2022-08-01T12:43:51;4.50;;;1.70;;
36593;SDS011;22603;47.900;8.146;2022-08-01T12:46:38;3.88;;;1.80;;
36593;SDS011;22603;47.900;8.146;2022-08-01T12:49:29;4.50;;;1.38;;
36593;SDS011;22603;47.900;8.146;2022-08-01T12:52:17;2.33;;;1.27;;
36593;SDS011;22603;47.900;8.146;2022-08-01T12:55:12;4.75;;;1.58;;
36593;SDS011;22603;47.900;8.146;2022-08-01T12:58:04;3.63;;;1.52;;
36593;SDS011;22603;47.900;8.146;2022-08-01T13:01:03;2.92;;;1.27;;
36593;SDS011;22603;47.900;8.146;2022-08-01T13:03:58;4.50;;;1.60;;
36593;SDS011;22603;47.900;8.146;2022-08-01T13:06:48;3.72;;;1.55;;
36593;SDS011;22603;47.900;8.146;2022-08-01T13:09:48;3.80;;;1.70;;
36593;SDS011;22603;47.900;8.146;2022-08-01T13:12:36;2.00;;;1.40;;
36593;SDS011;22603;47.900;8.146;2022-08-01T13:15:25;3.10;;;1.60;;
36593;SDS011;22603;47.900;8.146;2022-08-01T13:18:24;4.60;;;1.90;;
36593;SDS011;22603;47.900;8.146;2022-08-01T13:21:13;4.22;;;1.60;;
36593;SDS011;22603;47.900;8.146;2022-08-01T13:24:05;2.90;;;1.45;;
36593;SDS011;22603;47.900;8.146;2022-08-01T13:26:55;3.15;;;1.40;;
36593;SDS011;22603;47.900;8.146;2022-08-01T13:29:45;3.78;;;1.70;;
36593;SDS011;22603;47.900;8.146;2022-08-01T13:32:34;6.15;;;1.67;;
36593;SDS011;22603;47.900;8.146;2022-08-01T13:35:21;3.10;;;1.45;;
36593;SDS011;22603;47.900;8.146;2022-08-01T13:38:08;4.03;;;1.90;;
36593;SDS011;22603;47.900;8.146;2022-08-01T13:40:58;4.60;;;1.60;;
36593;SDS011;22603;47.900;8.146;2022-08-01T13:43:46;4.30;;;1.80;;
36593;SDS011;22603;47.900;8.146;2022-08-01T13:46:43;3.72;;;1.67;;
36593;SDS011;22603;47.900;8.146;2022-08-01T13:49:35;5.80;;;1.85;;
36593;SDS011;22603;47.900;8.146;2022-08-01T13:52:25;4.57;;;1.80;;
36593;SDS011;22603;47.900;8.146;2022-08-01T13:55:12;9.60;;;1.63;;
36593;SDS011;22603;47.900;8.146;2022-08-01T13:58:00;5.53;;;1.70;;
36593;SDS011;22603;47.900;8.146;2022-08-01T14:00:48;4.95;;;1.70;;
36593;SDS011;22603;47.900;8.146;2022-08-01T14:03:35;5.40;;;1.95;;
36593;SDS011;22603;47.900;8.146;2022-08-01T14:06:22;3.70;;;1.88;;
36593;SDS011;22603;47.900;8.146;2022-08-01T14:09:10;5.65;;;2.00;;
36593;SDS011;22603;47.900;8.146;2022-08-01T14:12:08;3.75;;;1.80;;
36593;SDS011;22603;47.900;8.146;2022-08-01T14:14:56;3.55;;;1.73;;
36593;SDS011;22603;47.900;8.146;2022-08-01T14:17:44;5.97;;;2.10;;
36593;SDS011;22603;47.900;8.146;2022-08-01T14:20:32;7.50;;;2.00;;
36593;SDS011;22603;47.900;8.146;2022-08-01T14:23:19;3.55;;;1.60;;
36593;SDS011;22603;47.900;8.146;2022-08-01T14:26:06;4.82;;;2.10;;
36593;SDS011;22603;47.900;8.146;2022-08-01T14:28:56;3.08;;;1.40;;
36593;SDS011;22603;47.900;8.146;2022-08-01T14:31:45;5.13;;;1.77;;
36593;SDS011;22603;47.900;8.146;2022-08-01T14:34:32;3.75;;;1.85;;
36593;SDS011;22603;47.900;8.146;2022-08-01T14:37:18;6.03;;;2.00;;
36593;SDS011;22603;47.900;8.146;2022-08-01T14:40:12;4.18;;;1.70;;
36593;SDS011;22603;47.900;8.146;2022-08-01T14:43:03;5.90;;;2.10;;
36593;SDS011;22603;47.900;8.146;2022-08-01T14:46:09;4.15;;;2.10;;
36593;SDS011;22603;47.900;8.146;2022-08-01T14:48:59;8.18;;;2.75;;
36593;SDS011;22603;47.900;8.146;2022-08-01T14:51:46;3.13;;;1.60;;
36593;SDS011;22603;47.900;8.146;2022-08-01T14:54:33;3.95;;;1.80;;
36593;SDS011;22603;47.900;8.146;2022-08-01T14:57:20;3.45;;;1.73;;
36593;SDS011;22603;47.900;8.146;2022-08-01T15:00:09;4.05;;;1.70;;
36593;SDS011;22603;47.900;8.146;2022-08-01T15:02:57;4.13;;;1.90;;
36593;SDS011;22603;47.900;8.146;2022-08-01T15:05:46;4.00;;;1.85;;
36593;SDS011;22603;47.900;8.146;2022-08-01T15:08:33;5.82;;;2.28;;
36593;SDS011;22603;47.900;8.146;2022-08-01T15:11:20;7.47;;;2.03;;
36593;SDS011;22603;47.900;8.146;2022-08-01T15:14:18;5.65;;;1.88;;
36593;SDS011;22603;47.900;8.146;2022-08-01T15:17:23;6.05;;;2.13;;
36593;SDS011;22603;47.900;8.146;2022-08-01T15:20:14;5.85;;;2.33;;
36593;SDS011;22603;47.900;8.146;2022-08-01T15:23:03;4.55;;;1.88;;
36593;SDS011;22603;47.900;8.146;2022-08-01T15:25:50;5.03;;;2.15;;
36593;SDS011;22603;47.900;8.146;2022-08-01T15:28:37;4.47;;;2.15;;
36593;SDS011;22603;47.900;8.146;2022-08-01T15:31:24;7.45;;;2.22;;
36593;SDS011;22603;47.900;8.146;2022-08-01T15:34:12;4.60;;;1.90;;
36593;SDS011;22603;47.900;8.146;2022-08-01T15:36:59;6.82;;;1.98;;
36593;SDS011;22603;47.900;8.146;2022-08-01T15:39:47;5.38;;;2.20;;
36593;SDS011;22603;47.900;8.146;2022-08-01T15:42:40;4.97;;;2.08;;
36593;SDS011;22603;47.900;8.146;2022-08-01T15:45:27;6.25;;;2.17;;
36593;SDS011;22603;47.900;8.146;2022-08-01T15:48:32;4.85;;;2.22;;
36593;SDS011;22603;47.900;8.146;2022-08-01T15:51:24;4.82;;;2.00;;
36593;SDS011;22603;47.900;8.146;2022-08-01T15:54:11;5.18;;;2.30;;
36593;SDS011;22603;47.900;8.146;2022-08-01T15:57:00;5.50;;;2.15;;
36593;SDS011;22603;47.900;8.146;2022-08-01T15:59:48;7.63;;;2.22;;
36593;SDS011;22603;47.900;8.146;2022-08-01T16:02:35;4.25;;;1.88;;
36593;SDS011;22603;47.900;8.146;2022-08-01T16:05:22;5.22;;;2.35;;
36593;SDS011;22603;47.900;8.146;2022-08-01T16:08:09;5.93;;;2.28;;
36593;SDS011;22603;47.900;8.146;2022-08-01T16:10:57;6.93;;;2.20;;
36593;SDS011;22603;47.900;8.146;2022-08-01T16:13:45;4.75;;;2.20;;
36593;SDS011;22603;47.900;8.146;2022-08-01T16:16:33;5.15;;;2.20;;
36593;SDS011;22603;47.900;8.146;2022-08-01T16:19:20;5.85;;;2.13;;
36593;SDS011;22603;47.900;8.146;2022-08-01T16:22:08;6.35;;;2.33;;
36593;SDS011;22603;47.900;8.146;2022-08-01T16:24:55;7.22;;;2.15;;
36593;SDS011;22603;47.900;8.146;2022-08-01T16:27:45;6.10;;;2.45;;
36593;SDS011;22603;47.900;8.146;2022-08-01T16:30:33;5.63;;;2.20;;
36593;SDS011;22603;47.900;8.146;2022-08-01T16:33:21;4.97;;;2.17;;
36593;SDS011;22603;47.900;8.146;2022-08-01T16:36:29;4.93;;;2.25;;
36593;SDS011;22603;47.900;8.146;2022-08-01T16:39:15;5.45;;;2.00;;
36593;SDS011;22603;47.900;8.146;2022-08-01T16:42:07;8.00;;;2.30;;
36593;SDS011;22603;47.900;8.146;2022-08-01T16:44:57;5.60;;;2.42;;
36593;SDS011;22603;47.900;8.146;2022-08-01T16:47:53;5.47;;;2.20;;
36593;SDS011;22603;47.900;8.146;2022-08-01T16:50:41;4.70;;;2.10;;
36593;SDS011;22603;47.900;8.146;2022-08-01T16:53:28;5.18;;;2.20;;
36593;SDS011;22603;47.900;8.146;2022-08-01T16:56:16;6.50;;;2.17;;
36593;SDS011;22603;47.900;8.146;2022-08-01T16:59:02;5.90;;;2.30;;
36593;SDS011;22603;47.900;8.146;2022-08-01T17:01:51;5.35;;;2.10;;
36593;SDS011;22603;47.900;8.146;2022-08-01T17:04:48;14.27;;;2.70;;
36593;SDS011;22603;47.900;8.146;2022-08-01T17:07:35;5.25;;;2.42;;
36593;SDS011;22603;47.900;8.146;2022-08-01T17:10:22;6.18;;;2.53;;
36593;SDS011;22603;47.900;8.146;2022-08-01T17:13:10;6.57;;;2.33;;
36593;SDS011;22603;47.900;8.146;2022-08-01T17:15:57;5.13;;;2.15;;
36593;SDS011;22603;47.900;8.146;2022-08-01T17:18:45;5.28;;;2.38;;
36593;SDS011;22603;47.900;8.146;2022-08-01T17:21:33;6.28;;;2.47;;
36593;SDS011;22603;47.900;8.146;2022-08-01T17:24:25;6.22;;;2.28;;
36593;SDS011;22603;47.900;8.146;2022-08-01T17:27:13;6.43;;;2.53;;